createdAt,value
2017-09-01T00:00:10.871Z,818.38
2017-09-01T00:01:11.484Z,818.42
2017-09-01T00:02:12.102Z,818.40
2017-09-01T00:03:12.749Z,818.35
2017-09-01T00:04:13.358Z,818.37
2017-09-01T00:05:13.971Z,818.34
2017-09-01T00:06:14.582Z,818.35
2017-09-01T00:07:15.294Z,818.33
2017-09-01T00:08:15.913Z,818.31
2017-09-01T00:09:16.520Z,818.25
2017-09-01T00:10:17.139Z,818.28
2017-09-01T00:11:17.788Z,818.28
2017-09-01T00:12:18.496Z,818.28
2017-09-01T00:13:19.110Z,818.25
2017-09-01T00:14:19.721Z,818.30
2017-09-01T00:15:20.335Z,818.27
2017-09-01T00:16:20.946Z,818.26
2017-09-01T00:17:21.659Z,818.24
2017-09-01T00:18:22.272Z,818.24
2017-09-01T00:19:22.887Z,818.23
2017-09-01T00:20:23.499Z,818.21
2017-09-01T00:21:24.108Z,818.23
2017-09-01T00:22:24.820Z,818.25
2017-09-01T00:23:25.438Z,818.24
2017-09-01T00:24:26.049Z,818.24
2017-09-01T00:25:26.694Z,818.20
2017-09-01T00:26:27.307Z,818.19
2017-09-01T00:27:28.023Z,818.16
2017-09-01T00:28:28.633Z,818.14
2017-09-01T00:29:29.245Z,818.18
2017-09-01T00:30:29.889Z,818.18
2017-09-01T00:31:30.499Z,818.18
2017-09-01T00:32:31.218Z,818.15
2017-09-01T00:33:31.827Z,818.10
2017-09-01T00:34:32.439Z,818.06
2017-09-01T00:35:33.056Z,818.06
2017-09-01T00:36:33.664Z,818.08
2017-09-01T00:37:34.376Z,818.05
2017-09-01T00:38:34.988Z,818.11
2017-09-01T00:39:35.605Z,818.10
2017-09-01T00:40:36.255Z,818.07
2017-09-01T00:41:36.828Z,818.09
2017-09-01T00:42:37.440Z,818.09
2017-09-01T00:43:38.052Z,818.11
2017-09-01T00:44:38.671Z,818.08
2017-09-01T00:45:39.379Z,818.10
2017-09-01T00:46:39.997Z,818.08
2017-09-01T00:47:40.608Z,818.04
2017-09-01T00:48:41.259Z,818.07
2017-09-01T00:49:41.867Z,818.08
2017-09-01T00:50:42.480Z,818.07
2017-09-01T00:51:43.189Z,818.04
2017-09-01T00:52:43.800Z,817.99
2017-09-01T00:53:44.410Z,817.98
2017-09-01T00:54:45.027Z,817.96
2017-09-01T00:55:45.645Z,817.95
2017-09-01T00:56:46.387Z,817.97
2017-09-01T00:57:47.000Z,817.91
2017-09-01T00:58:47.617Z,817.92
2017-09-01T00:59:48.231Z,817.91
2017-09-01T01:00:48.844Z,817.93
2017-09-01T01:01:49.560Z,817.91
2017-09-01T01:02:50.175Z,817.94
2017-09-01T01:03:50.789Z,817.93
2017-09-01T01:04:51.402Z,817.92
2017-09-01T01:05:52.012Z,817.90
2017-09-01T01:06:52.729Z,817.91
2017-09-01T01:07:53.338Z,817.87
2017-09-01T01:08:53.949Z,817.86
2017-09-01T01:09:54.561Z,817.89
2017-09-01T01:10:55.174Z,817.86
2017-09-01T01:11:55.786Z,817.86
2017-09-01T01:12:56.397Z,817.81
2017-09-01T01:13:57.009Z,817.82
2017-09-01T01:14:57.628Z,817.78
2017-09-01T01:15:58.335Z,817.82
2017-09-01T01:16:58.951Z,817.80
2017-09-01T01:17:59.562Z,817.83
2017-09-01T01:19:00.172Z,817.77
2017-09-01T01:20:00.785Z,817.83
2017-09-01T01:21:01.497Z,817.86
2017-09-01T01:22:02.110Z,817.85
2017-09-01T01:23:02.723Z,817.87
2017-09-01T01:24:03.333Z,817.86
2017-09-01T01:25:03.950Z,817.83
2017-09-01T01:26:04.665Z,817.82
2017-09-01T01:27:05.282Z,817.79
2017-09-01T01:28:05.891Z,817.80
2017-09-01T01:29:06.504Z,817.80
2017-09-01T01:30:07.115Z,817.79
2017-09-01T01:31:07.826Z,817.76
2017-09-01T01:32:08.440Z,817.75
2017-09-01T01:33:09.050Z,817.78
2017-09-01T01:34:09.663Z,817.79
2017-09-01T01:35:10.280Z,817.76
2017-09-01T01:36:10.997Z,817.77
2017-09-01T01:37:11.609Z,817.75
2017-09-01T01:38:12.218Z,817.74
2017-09-01T01:39:12.836Z,817.70
2017-09-01T01:40:13.444Z,817.73
2017-09-01T01:41:14.156Z,817.69
2017-09-01T01:42:14.767Z,817.67
2017-09-01T01:43:15.384Z,817.68
2017-09-01T01:44:15.993Z,817.72
2017-09-01T01:45:16.609Z,817.67
2017-09-01T01:46:17.318Z,817.67
2017-09-01T01:47:17.931Z,817.68
2017-09-01T01:48:18.543Z,817.69
2017-09-01T01:49:19.155Z,817.72
2017-09-01T01:50:19.799Z,817.68
2017-09-01T01:51:20.509Z,817.64
2017-09-01T01:52:21.121Z,817.66
2017-09-01T01:53:21.738Z,817.65
2017-09-01T01:54:22.353Z,817.64
2017-09-01T01:55:22.969Z,817.63
2017-09-01T01:56:23.676Z,817.61
2017-09-01T01:57:24.321Z,817.62
2017-09-01T01:58:24.936Z,817.62
2017-09-01T01:59:25.545Z,817.60
2017-09-01T02:00:26.158Z,817.58
2017-09-01T02:01:26.922Z,817.61
2017-09-01T02:02:27.532Z,817.59
2017-09-01T02:03:28.142Z,817.57
2017-09-01T02:04:28.758Z,817.58
2017-09-01T02:05:29.377Z,817.58
2017-09-01T02:06:30.089Z,817.56
2017-09-01T02:07:30.697Z,817.56
2017-09-01T02:08:31.311Z,817.58
2017-09-01T02:09:31.926Z,817.59
2017-09-01T02:10:32.541Z,817.58
2017-09-01T02:11:33.149Z,817.61
2017-09-01T02:12:33.873Z,817.60
2017-09-01T02:13:34.484Z,817.68
2017-09-01T02:14:35.094Z,817.59
2017-09-01T02:15:35.712Z,817.59
2017-09-01T02:16:36.319Z,817.59
2017-09-01T02:17:36.937Z,817.59
2017-09-01T02:18:37.679Z,817.60
2017-09-01T02:19:38.325Z,817.56
2017-09-01T02:20:38.942Z,817.60
2017-09-01T02:21:39.550Z,817.56
2017-09-01T02:22:40.162Z,817.52
2017-09-01T02:23:40.874Z,817.56
2017-09-01T02:24:41.485Z,817.53
2017-09-01T02:25:42.104Z,817.55
2017-09-01T02:26:42.717Z,817.56
2017-09-01T02:27:43.358Z,817.56
2017-09-01T02:28:44.071Z,817.56
2017-09-01T02:29:44.683Z,817.59
2017-09-01T02:30:45.295Z,817.54
2017-09-01T02:31:45.907Z,817.53
2017-09-01T02:32:46.524Z,817.50
2017-09-01T02:33:47.169Z,817.51
2017-09-01T02:34:47.788Z,817.50
2017-09-01T02:35:48.403Z,817.50
2017-09-01T02:36:49.111Z,817.47
2017-09-01T02:37:49.757Z,817.42
2017-09-01T02:38:50.363Z,817.44
2017-09-01T02:39:50.974Z,817.42
2017-09-01T02:40:51.589Z,817.40
2017-09-01T02:41:52.333Z,817.42
2017-09-01T02:42:52.944Z,817.42
2017-09-01T02:43:53.554Z,817.35
2017-09-01T02:44:54.167Z,817.38
2017-09-01T02:45:54.785Z,817.33
2017-09-01T02:46:55.494Z,817.34
2017-09-01T02:47:56.112Z,817.38
2017-09-01T02:48:56.725Z,817.42
2017-09-01T02:49:57.365Z,817.40
2017-09-01T02:50:57.976Z,817.36
2017-09-01T02:51:58.690Z,817.37
2017-09-01T02:52:59.334Z,817.42
2017-09-01T02:53:59.951Z,817.36
2017-09-01T02:55:00.562Z,817.40
2017-09-01T02:56:01.175Z,817.36
2017-09-01T02:57:01.892Z,817.36
2017-09-01T02:58:02.502Z,817.33
2017-09-01T02:59:03.110Z,817.31
2017-09-01T03:00:03.729Z,817.34
2017-09-01T03:01:04.338Z,817.31
2017-09-01T03:02:05.049Z,817.33
2017-09-01T03:03:05.661Z,817.31
2017-09-01T03:04:06.277Z,817.32
2017-09-01T03:05:06.890Z,817.34
2017-09-01T03:06:07.503Z,817.32
2017-09-01T03:07:08.218Z,817.29
2017-09-01T03:08:08.833Z,817.30
2017-09-01T03:09:09.443Z,817.32
2017-09-01T03:10:10.056Z,817.31
2017-09-01T03:11:10.705Z,817.32
2017-09-01T03:12:11.413Z,817.29
2017-09-01T03:13:12.025Z,817.29
2017-09-01T03:14:12.637Z,817.28
2017-09-01T03:15:13.248Z,817.28
2017-09-01T03:16:13.858Z,817.31
2017-09-01T03:17:14.571Z,817.26
2017-09-01T03:18:15.185Z,817.25
2017-09-01T03:19:15.796Z,817.26
2017-09-01T03:20:16.438Z,817.28
2017-09-01T03:21:17.057Z,817.31
2017-09-01T03:22:17.671Z,817.30
2017-09-01T03:23:18.280Z,817.26
2017-09-01T03:24:18.925Z,817.28
2017-09-01T03:25:19.641Z,817.24
2017-09-01T03:26:20.249Z,817.28
2017-09-01T03:27:20.866Z,817.25
2017-09-01T03:28:21.475Z,817.32
2017-09-01T03:29:22.117Z,817.33
2017-09-01T03:30:22.867Z,817.32
2017-09-01T03:31:23.512Z,817.30
2017-09-01T03:32:24.120Z,817.25
2017-09-01T03:33:24.731Z,817.29
2017-09-01T03:34:25.374Z,817.23
2017-09-01T03:35:26.085Z,817.23
2017-09-01T03:36:26.697Z,817.23
2017-09-01T03:37:27.309Z,817.25
2017-09-01T03:38:27.923Z,817.26
2017-09-01T03:39:28.566Z,817.16
2017-09-01T03:40:29.183Z,817.17
2017-09-01T03:41:29.899Z,817.14
2017-09-01T03:42:30.514Z,817.14
2017-09-01T03:43:31.129Z,817.17
2017-09-01T03:44:31.737Z,817.16
2017-09-01T03:45:32.408Z,817.11
2017-09-01T03:46:33.095Z,817.10
2017-09-01T03:47:33.711Z,817.05
2017-09-01T03:48:34.318Z,817.07
2017-09-01T03:49:34.955Z,817.08
2017-09-01T03:50:35.545Z,817.11
2017-09-01T03:51:36.157Z,817.09
2017-09-01T03:52:36.867Z,817.11
2017-09-01T03:53:37.486Z,817.07
2017-09-01T03:54:38.097Z,817.07
2017-09-01T03:55:38.710Z,817.06
2017-09-01T03:56:39.320Z,817.08
2017-09-01T03:57:40.066Z,817.07
2017-09-01T03:58:40.677Z,817.09
2017-09-01T03:59:41.292Z,817.10
2017-09-01T04:00:41.900Z,817.09
2017-09-01T04:01:42.512Z,817.11
2017-09-01T04:02:43.229Z,817.10
2017-09-01T04:03:43.845Z,817.07
2017-09-01T04:04:44.455Z,816.98
2017-09-01T04:05:45.065Z,817.00
2017-09-01T04:06:45.678Z,816.99
2017-09-01T04:07:46.392Z,816.98
2017-09-01T04:08:47.003Z,817.00
2017-09-01T04:09:47.622Z,816.99
2017-09-01T04:10:48.228Z,817.01
2017-09-01T04:11:48.846Z,816.97
2017-09-01T04:12:49.562Z,816.98
2017-09-01T04:13:50.174Z,817.01
2017-09-01T04:14:50.804Z,816.99
2017-09-01T04:15:51.398Z,817.02
2017-09-01T04:16:52.043Z,817.00
2017-09-01T04:17:52.765Z,816.99
2017-09-01T04:18:53.398Z,817.00
2017-09-01T04:19:54.011Z,817.01
2017-09-01T04:20:54.628Z,817.03
2017-09-01T04:21:55.237Z,817.02
2017-09-01T04:22:55.998Z,817.02
2017-09-01T04:23:56.615Z,817.01
2017-09-01T04:24:57.226Z,817.02
2017-09-01T04:25:57.840Z,817.03
2017-09-01T04:26:58.445Z,817.03
2017-09-01T04:27:59.211Z,817.05
2017-09-01T04:28:59.826Z,817.03
2017-09-01T04:30:00.434Z,816.99
2017-09-01T04:31:01.049Z,816.99
2017-09-01T04:32:01.655Z,816.98
2017-09-01T04:33:02.418Z,817.00
2017-09-01T04:34:03.031Z,817.01
2017-09-01T04:35:03.641Z,816.99
2017-09-01T04:36:04.252Z,817.01
2017-09-01T04:37:04.863Z,817.01
2017-09-01T04:38:05.624Z,817.07
2017-09-01T04:39:06.235Z,817.01
2017-09-01T04:40:06.846Z,817.01
2017-09-01T04:41:07.458Z,817.01
2017-09-01T04:42:08.074Z,817.00
2017-09-01T04:43:08.829Z,817.01
2017-09-01T04:44:09.443Z,817.02
2017-09-01T04:45:10.060Z,816.99
2017-09-01T04:46:10.667Z,816.97
2017-09-01T04:47:11.278Z,817.00
2017-09-01T04:48:12.042Z,817.00
2017-09-01T04:49:12.659Z,816.98
2017-09-01T04:50:13.304Z,817.02
2017-09-01T04:51:13.913Z,817.02
2017-09-01T04:52:14.529Z,816.96
2017-09-01T04:53:15.290Z,816.97
2017-09-01T04:54:15.900Z,816.99
2017-09-01T04:55:16.515Z,817.00
2017-09-01T04:56:17.155Z,816.97
2017-09-01T04:57:17.766Z,816.97
2017-09-01T04:58:18.384Z,817.01
2017-09-01T04:59:18.997Z,816.99
2017-09-01T05:00:19.856Z,816.97
2017-09-01T05:01:20.476Z,816.94
2017-09-01T05:02:21.090Z,816.97
2017-09-01T05:03:21.701Z,816.97
2017-09-01T05:04:22.311Z,816.91
2017-09-01T05:05:23.073Z,816.94
2017-09-01T05:06:23.694Z,816.94
2017-09-01T05:07:24.302Z,816.92
2017-09-01T05:08:24.913Z,816.91
2017-09-01T05:09:25.530Z,816.92
2017-09-01T05:10:26.323Z,816.91
2017-09-01T05:11:26.937Z,816.90
2017-09-01T05:12:27.549Z,816.91
2017-09-01T05:13:28.161Z,816.87
2017-09-01T05:14:28.771Z,816.85
2017-09-01T05:15:29.531Z,816.85
2017-09-01T05:16:30.144Z,816.87
2017-09-01T05:17:30.757Z,816.86
2017-09-01T05:18:31.367Z,816.85
2017-09-01T05:19:31.977Z,816.85
2017-09-01T05:20:32.595Z,816.88
2017-09-01T05:21:33.207Z,816.88
2017-09-01T05:22:33.820Z,816.89
2017-09-01T05:23:34.437Z,816.90
2017-09-01T05:24:35.306Z,816.92
2017-09-01T05:25:35.913Z,816.89
2017-09-01T05:26:36.559Z,816.86
2017-09-01T05:27:37.200Z,816.87
2017-09-01T05:28:37.813Z,816.90
2017-09-01T05:29:38.575Z,816.87
2017-09-01T05:30:39.189Z,816.88
2017-09-01T05:31:39.806Z,816.84
2017-09-01T05:32:40.424Z,816.86
2017-09-01T05:33:41.034Z,816.85
2017-09-01T05:34:41.646Z,816.84
2017-09-01T05:35:42.259Z,816.87
2017-09-01T05:36:43.024Z,816.87
2017-09-01T05:37:43.640Z,816.85
2017-09-01T05:38:44.251Z,816.83
2017-09-01T05:39:44.864Z,816.84
2017-09-01T05:40:45.476Z,816.85
2017-09-01T05:41:46.239Z,816.85
2017-09-01T05:42:46.859Z,816.85
2017-09-01T05:43:47.468Z,816.83
2017-09-01T05:44:48.081Z,816.84
2017-09-01T05:45:48.701Z,816.86
2017-09-01T05:46:49.466Z,816.85
2017-09-01T05:47:50.077Z,816.86
2017-09-01T05:48:50.688Z,816.84
2017-09-01T05:49:51.300Z,816.85
2017-09-01T05:50:51.912Z,816.84
2017-09-01T05:51:52.732Z,816.82
2017-09-01T05:52:53.342Z,816.83
2017-09-01T05:53:53.957Z,816.81
2017-09-01T05:54:54.570Z,816.81
2017-09-01T05:55:55.189Z,816.82
2017-09-01T05:56:56.005Z,816.80
2017-09-01T05:57:56.616Z,816.78
2017-09-01T05:58:57.234Z,816.75
2017-09-01T05:59:57.841Z,816.78
2017-09-01T06:00:58.453Z,816.77
2017-09-01T06:01:59.217Z,816.76
2017-09-01T06:02:59.829Z,816.78
2017-09-01T06:04:00.440Z,816.77
2017-09-01T06:05:01.052Z,816.76
2017-09-01T06:06:01.670Z,816.76
2017-09-01T06:07:02.282Z,816.76
2017-09-01T06:08:02.931Z,816.80
2017-09-01T06:09:03.543Z,816.80
2017-09-01T06:10:04.161Z,816.84
2017-09-01T06:11:04.777Z,816.79
2017-09-01T06:12:05.536Z,816.84
2017-09-01T06:13:06.152Z,816.84
2017-09-01T06:14:06.768Z,816.85
2017-09-01T06:15:07.378Z,816.86
2017-09-01T06:16:07.989Z,816.83
2017-09-01T06:17:08.769Z,816.85
2017-09-01T06:18:09.368Z,816.86
2017-09-01T06:19:10.012Z,816.84
2017-09-01T06:20:10.624Z,816.86
2017-09-01T06:21:11.235Z,816.87
2017-09-01T06:22:12.086Z,816.87
2017-09-01T06:23:12.696Z,816.88
2017-09-01T06:24:13.315Z,816.88
2017-09-01T06:25:13.964Z,816.83
2017-09-01T06:26:14.578Z,816.82
2017-09-01T06:27:15.401Z,816.81
2017-09-01T06:28:16.003Z,816.83
2017-09-01T06:29:16.618Z,816.84
2017-09-01T06:30:17.231Z,816.84
2017-09-01T06:31:17.849Z,816.81
2017-09-01T06:32:18.459Z,816.85
2017-09-01T06:33:19.079Z,816.82
2017-09-01T06:34:19.689Z,816.84
2017-09-01T06:35:20.303Z,816.85
2017-09-01T06:36:20.919Z,816.83
2017-09-01T06:37:21.771Z,816.80
2017-09-01T06:38:22.383Z,816.80
2017-09-01T06:39:22.998Z,816.77
2017-09-01T06:40:23.612Z,816.79
2017-09-01T06:41:24.228Z,816.81
2017-09-01T06:42:24.994Z,816.80
2017-09-01T06:43:25.607Z,816.82
2017-09-01T06:44:26.226Z,816.80
2017-09-01T06:45:26.878Z,816.80
2017-09-01T06:46:27.529Z,816.84
2017-09-01T06:47:28.292Z,816.80
2017-09-01T06:48:28.907Z,816.83
2017-09-01T06:49:29.522Z,816.81
2017-09-01T06:50:30.136Z,816.81
2017-09-01T06:51:30.754Z,816.78
2017-09-01T06:52:31.524Z,816.80
2017-09-01T06:53:32.135Z,816.81
2017-09-01T06:54:32.757Z,816.81
2017-09-01T06:55:33.369Z,816.82
2017-09-01T06:56:33.984Z,816.86
2017-09-01T06:57:34.753Z,816.83
2017-09-01T06:58:35.372Z,816.79
2017-09-01T06:59:35.983Z,816.79
2017-09-01T07:00:36.601Z,816.77
2017-09-01T07:01:37.216Z,816.78
2017-09-01T07:02:37.981Z,816.74
2017-09-01T07:03:38.603Z,816.77
2017-09-01T07:04:39.220Z,816.75
2017-09-01T07:05:39.833Z,816.80
2017-09-01T07:06:40.451Z,816.78
2017-09-01T07:07:41.269Z,816.81
2017-09-01T07:08:41.887Z,816.81
2017-09-01T07:09:42.512Z,816.81
2017-09-01T07:10:43.122Z,816.81
2017-09-01T07:11:43.742Z,816.84
2017-09-01T07:12:44.506Z,816.83
2017-09-01T07:13:45.123Z,816.84
2017-09-01T07:14:45.743Z,816.86
2017-09-01T07:15:46.359Z,816.82
2017-09-01T07:16:46.979Z,816.83
2017-09-01T07:17:47.777Z,816.82
2017-09-01T07:18:48.395Z,816.82
2017-09-01T07:19:49.010Z,816.81
2017-09-01T07:20:49.659Z,816.86
2017-09-01T07:21:50.275Z,816.86
2017-09-01T07:22:50.890Z,816.86
2017-09-01T07:23:51.506Z,816.83
2017-09-01T07:24:52.324Z,816.82
2017-09-01T07:25:52.942Z,816.88
2017-09-01T07:26:53.559Z,816.87
2017-09-01T07:27:54.181Z,816.85
2017-09-01T07:28:54.801Z,816.83
2017-09-01T07:29:55.563Z,816.88
2017-09-01T07:30:56.180Z,816.91
2017-09-01T07:31:56.828Z,816.92
2017-09-01T07:32:57.442Z,816.92
2017-09-01T07:33:58.057Z,816.97
2017-09-01T07:34:58.824Z,816.94
2017-09-01T07:35:59.438Z,816.95
2017-09-01T07:37:00.063Z,816.90
2017-09-01T07:38:00.673Z,816.95
2017-09-01T07:39:01.294Z,816.93
2017-09-01T07:40:02.056Z,816.95
2017-09-01T07:41:02.706Z,816.98
2017-09-01T07:42:03.331Z,816.94
2017-09-01T07:43:03.937Z,816.96
2017-09-01T07:44:04.550Z,817.00
2017-09-01T07:45:05.348Z,816.95
2017-09-01T07:46:05.969Z,817.02
2017-09-01T07:47:06.582Z,817.00
2017-09-01T07:48:07.202Z,817.00
2017-09-01T07:49:07.850Z,816.99
2017-09-01T07:50:08.616Z,817.01
2017-09-01T07:51:09.236Z,817.01
2017-09-01T07:52:09.890Z,817.01
2017-09-01T07:53:10.503Z,816.97
2017-09-01T07:54:11.117Z,816.99
2017-09-01T07:55:11.732Z,816.95
2017-09-01T07:56:12.352Z,816.96
2017-09-01T07:57:12.969Z,816.95
2017-09-01T07:58:13.732Z,816.97
2017-09-01T07:59:14.352Z,816.95
2017-09-01T08:00:14.971Z,816.96
2017-09-01T08:01:15.583Z,816.95
2017-09-01T08:02:16.200Z,816.96
2017-09-01T08:03:16.971Z,816.97
2017-09-01T08:04:17.584Z,817.00
2017-09-01T08:05:18.198Z,816.99
2017-09-01T08:06:18.820Z,816.97
2017-09-01T08:07:19.467Z,816.98
2017-09-01T08:08:20.272Z,817.02
2017-09-01T08:09:20.885Z,816.99
2017-09-01T08:10:21.507Z,817.00
2017-09-01T08:11:22.123Z,817.02
2017-09-01T08:12:22.739Z,817.02
2017-09-01T08:13:23.536Z,817.04
2017-09-01T08:14:24.156Z,817.05
2017-09-01T08:15:24.770Z,817.02
2017-09-01T08:16:25.388Z,817.03
2017-09-01T08:17:26.004Z,817.00
2017-09-01T08:18:26.769Z,817.02
2017-09-01T08:19:27.387Z,817.07
2017-09-01T08:20:28.003Z,817.03
2017-09-01T08:21:28.619Z,816.99
2017-09-01T08:22:29.237Z,817.01
2017-09-01T08:23:29.891Z,817.03
2017-09-01T08:24:30.692Z,817.04
2017-09-01T08:25:31.312Z,817.08
2017-09-01T08:26:31.933Z,817.09
2017-09-01T08:27:32.579Z,817.11
2017-09-01T08:28:33.202Z,817.08
2017-09-01T08:29:33.964Z,817.08
2017-09-01T08:30:34.614Z,817.08
2017-09-01T08:31:35.232Z,817.11
2017-09-01T08:32:35.847Z,817.06
2017-09-01T08:33:36.463Z,817.09
2017-09-01T08:34:37.081Z,817.05
2017-09-01T08:35:37.697Z,817.10
2017-09-01T08:36:38.463Z,817.05
2017-09-01T08:37:39.080Z,817.12
2017-09-01T08:38:39.704Z,817.04
2017-09-01T08:39:40.322Z,817.07
2017-09-01T08:40:40.943Z,817.09
2017-09-01T08:41:41.705Z,817.06
2017-09-01T08:42:42.330Z,817.06
2017-09-01T08:43:42.943Z,817.07
2017-09-01T08:44:43.561Z,817.09
2017-09-01T08:45:44.177Z,817.05
2017-09-01T08:46:44.949Z,817.06
2017-09-01T08:47:45.563Z,817.09
2017-09-01T08:48:46.179Z,817.07
2017-09-01T08:49:46.802Z,817.08
2017-09-01T08:50:47.415Z,817.03
2017-09-01T08:51:48.222Z,817.08
2017-09-01T08:52:48.835Z,817.05
2017-09-01T08:53:49.449Z,817.03
2017-09-01T08:54:50.066Z,817.05
2017-09-01T08:55:50.682Z,817.05
2017-09-01T08:56:51.449Z,817.05
2017-09-01T08:57:52.067Z,817.10
2017-09-01T08:58:52.683Z,817.11
2017-09-01T08:59:53.302Z,817.06
2017-09-01T09:00:53.916Z,817.10
2017-09-01T09:01:54.684Z,817.08
2017-09-01T09:02:55.310Z,817.10
2017-09-01T09:03:55.953Z,817.09
2017-09-01T09:04:56.601Z,817.13
2017-09-01T09:05:57.224Z,817.14
2017-09-01T09:06:57.987Z,817.11
2017-09-01T09:07:58.604Z,817.14
2017-09-01T09:08:59.224Z,817.11
2017-09-01T09:09:59.837Z,817.13
2017-09-01T09:11:00.455Z,817.09
2017-09-01T09:12:01.221Z,817.15
2017-09-01T09:13:01.840Z,817.12
2017-09-01T09:14:02.457Z,817.09
2017-09-01T09:15:03.079Z,817.09
2017-09-01T09:16:03.692Z,817.11
2017-09-01T09:17:04.462Z,817.12
2017-09-01T09:18:05.076Z,817.11
2017-09-01T09:19:05.710Z,817.10
2017-09-01T09:20:06.312Z,817.12
2017-09-01T09:21:06.931Z,817.08
2017-09-01T09:22:07.702Z,817.06
2017-09-01T09:23:08.323Z,817.09
2017-09-01T09:24:08.935Z,817.12
2017-09-01T09:25:09.551Z,817.12
2017-09-01T09:26:10.174Z,817.12
2017-09-01T09:27:10.939Z,817.09
2017-09-01T09:28:11.557Z,817.09
2017-09-01T09:29:12.207Z,817.09
2017-09-01T09:30:12.828Z,817.07
2017-09-01T09:31:13.475Z,817.09
2017-09-01T09:32:14.242Z,817.08
2017-09-01T09:33:14.860Z,817.09
2017-09-01T09:34:15.477Z,817.10
2017-09-01T09:35:16.093Z,817.11
2017-09-01T09:36:16.709Z,817.13
2017-09-01T09:37:17.477Z,817.07
2017-09-01T09:38:18.093Z,817.07
2017-09-01T09:39:18.711Z,817.04
2017-09-01T09:40:19.332Z,817.03
2017-09-01T09:41:19.952Z,817.04
2017-09-01T09:42:20.719Z,817.02
2017-09-01T09:43:21.367Z,817.01
2017-09-01T09:44:21.984Z,817.01
2017-09-01T09:45:22.603Z,817.03
2017-09-01T09:46:23.218Z,817.03
2017-09-01T09:47:23.985Z,817.07
2017-09-01T09:48:24.602Z,817.04
2017-09-01T09:49:25.221Z,817.05
2017-09-01T09:50:25.838Z,817.03
2017-09-01T09:51:26.462Z,817.03
2017-09-01T09:52:27.230Z,817.02
2017-09-01T09:53:27.850Z,817.01
2017-09-01T09:54:28.464Z,816.98
2017-09-01T09:55:29.082Z,816.99
2017-09-01T09:56:29.700Z,816.97
2017-09-01T09:57:30.317Z,817.00
2017-09-01T09:58:31.091Z,817.00
2017-09-01T09:59:31.710Z,816.98
2017-09-01T10:00:32.326Z,816.98
2017-09-01T10:01:32.946Z,817.03
2017-09-01T10:02:33.568Z,816.99
2017-09-01T10:03:34.182Z,816.99
2017-09-01T10:04:34.950Z,816.98
2017-09-01T10:05:35.568Z,816.94
2017-09-01T10:06:36.221Z,816.90
2017-09-01T10:07:36.841Z,816.93
2017-09-01T10:08:37.460Z,816.96
2017-09-01T10:09:38.260Z,816.93
2017-09-01T10:10:38.877Z,816.94
2017-09-01T10:11:39.493Z,816.95
2017-09-01T10:12:40.113Z,816.96
2017-09-01T10:13:40.729Z,816.93
2017-09-01T10:14:41.500Z,816.94
2017-09-01T10:15:42.119Z,816.93
2017-09-01T10:16:42.738Z,816.84
2017-09-01T10:17:43.357Z,816.82
2017-09-01T10:18:43.974Z,816.83
2017-09-01T10:19:44.743Z,816.84
2017-09-01T10:20:45.393Z,816.82
2017-09-01T10:21:46.017Z,816.84
2017-09-01T10:22:46.640Z,816.85
2017-09-01T10:23:47.256Z,816.80
2017-09-01T10:24:48.022Z,816.79
2017-09-01T10:25:48.640Z,816.82
2017-09-01T10:26:49.263Z,816.84
2017-09-01T10:27:49.878Z,816.84
2017-09-01T10:28:50.497Z,816.85
2017-09-01T10:29:51.266Z,816.89
2017-09-01T10:30:51.886Z,816.88
2017-09-01T10:31:52.504Z,816.87
2017-09-01T10:32:53.171Z,816.83
2017-09-01T10:33:53.778Z,816.85
2017-09-01T10:34:54.543Z,816.91
2017-09-01T10:35:55.161Z,816.91
2017-09-01T10:36:55.778Z,816.89
2017-09-01T10:37:56.397Z,816.94
2017-09-01T10:38:57.016Z,816.90
2017-09-01T10:39:57.640Z,816.93
2017-09-01T10:40:58.287Z,816.92
2017-09-01T10:41:58.904Z,816.95
2017-09-01T10:42:59.527Z,816.94
2017-09-01T10:44:00.299Z,816.96
2017-09-01T10:45:00.926Z,816.96
2017-09-01T10:46:01.535Z,816.97
2017-09-01T10:47:02.153Z,816.93
2017-09-01T10:48:02.777Z,816.93
2017-09-01T10:49:03.400Z,816.93
2017-09-01T10:50:04.163Z,816.96
2017-09-01T10:51:04.779Z,816.96
2017-09-01T10:52:05.396Z,816.94
2017-09-01T10:53:06.014Z,816.89
2017-09-01T10:54:06.635Z,816.92
2017-09-01T10:55:07.256Z,816.91
2017-09-01T10:56:08.023Z,816.85
2017-09-01T10:57:08.644Z,816.87
2017-09-01T10:58:09.259Z,816.91
2017-09-01T10:59:09.877Z,816.91
2017-09-01T11:00:10.502Z,816.92
2017-09-01T11:01:11.264Z,816.92
2017-09-01T11:02:11.881Z,816.96
2017-09-01T11:03:12.499Z,816.91
2017-09-01T11:04:13.117Z,816.88
2017-09-01T11:05:13.739Z,816.87
2017-09-01T11:06:14.504Z,816.80
2017-09-01T11:07:15.120Z,816.85
2017-09-01T11:08:15.739Z,816.88
2017-09-01T11:09:16.357Z,816.90
2017-09-01T11:10:17.011Z,816.94
2017-09-01T11:11:17.814Z,816.96
2017-09-01T11:12:18.439Z,817.00
2017-09-01T11:13:19.048Z,816.99
2017-09-01T11:14:19.671Z,817.02
2017-09-01T11:15:20.288Z,816.98
2017-09-01T11:16:21.084Z,817.03
2017-09-01T11:17:21.701Z,817.05
2017-09-01T11:18:22.322Z,816.97
2017-09-01T11:19:22.970Z,816.99
2017-09-01T11:20:23.586Z,817.01
2017-09-01T11:21:24.359Z,816.97
2017-09-01T11:22:24.974Z,817.02
2017-09-01T11:23:25.591Z,817.01
2017-09-01T11:24:26.208Z,816.99
2017-09-01T11:25:26.825Z,816.99
2017-09-01T11:26:27.592Z,817.01
2017-09-01T11:27:28.211Z,816.99
2017-09-01T11:28:28.833Z,816.97
2017-09-01T11:29:29.447Z,816.96
2017-09-01T11:30:30.066Z,816.95
2017-09-01T11:31:30.839Z,816.94
2017-09-01T11:32:31.452Z,816.93
2017-09-01T11:33:32.070Z,816.94
2017-09-01T11:34:32.689Z,816.89
2017-09-01T11:35:33.333Z,816.87
2017-09-01T11:36:34.102Z,816.89
2017-09-01T11:37:34.725Z,816.88
2017-09-01T11:38:35.373Z,816.82
2017-09-01T11:39:35.989Z,816.82
2017-09-01T11:40:36.612Z,816.79
2017-09-01T11:41:37.376Z,816.79
2017-09-01T11:42:37.999Z,816.78
2017-09-01T11:43:38.614Z,816.74
2017-09-01T11:44:39.266Z,816.73
2017-09-01T11:45:39.882Z,816.69
2017-09-01T11:46:40.655Z,816.66
2017-09-01T11:47:41.269Z,816.59
2017-09-01T11:48:41.887Z,816.62
2017-09-01T11:49:42.511Z,816.57
2017-09-01T11:50:43.128Z,816.59
2017-09-01T11:51:43.895Z,816.60
2017-09-01T11:52:44.516Z,816.62
2017-09-01T11:53:45.132Z,816.66
2017-09-01T11:54:45.750Z,816.63
2017-09-01T11:55:46.373Z,816.68
2017-09-01T11:56:47.144Z,816.69
2017-09-01T11:57:47.765Z,816.67
2017-09-01T11:58:48.421Z,816.71
2017-09-01T11:59:49.039Z,816.73
2017-09-01T12:00:49.655Z,816.74
2017-09-01T12:01:50.423Z,816.71
2017-09-01T12:02:51.048Z,816.77
2017-09-01T12:03:51.669Z,816.76
2017-09-01T12:04:52.284Z,816.76
2017-09-01T12:05:52.902Z,816.76
2017-09-01T12:06:53.672Z,816.75
2017-09-01T12:07:54.293Z,816.75
2017-09-01T12:08:54.912Z,816.78
2017-09-01T12:09:55.539Z,816.73
2017-09-01T12:10:56.157Z,816.71
2017-09-01T12:11:56.957Z,816.80
2017-09-01T12:12:57.584Z,816.78
2017-09-01T12:13:58.202Z,816.80
2017-09-01T12:14:58.821Z,816.80
2017-09-01T12:15:59.446Z,816.78
2017-09-01T12:17:00.215Z,816.78
2017-09-01T12:18:00.831Z,816.74
2017-09-01T12:19:01.458Z,816.80
2017-09-01T12:20:02.075Z,816.79
2017-09-01T12:21:02.697Z,816.73
2017-09-01T12:22:03.476Z,816.72
2017-09-01T12:23:04.085Z,816.75
2017-09-01T12:24:04.705Z,816.73
2017-09-01T12:25:05.325Z,816.71
2017-09-01T12:26:05.946Z,816.72
2017-09-01T12:27:06.718Z,816.72
2017-09-01T12:28:07.336Z,816.67
2017-09-01T12:29:07.960Z,816.66
2017-09-01T12:30:08.592Z,816.56
2017-09-01T12:31:09.231Z,816.63
2017-09-01T12:32:09.999Z,816.57
2017-09-01T12:33:10.618Z,816.58
2017-09-01T12:34:11.235Z,816.62
2017-09-01T12:35:11.854Z,816.61
2017-09-01T12:36:12.479Z,816.62